• Join FlightAware (Why Join?)
  • Login
  • US Flag 
08:47PM EDT


 

Airport Tracker/Info


-or-


 

Live Flight TrackerFlight Track Log ✈ SWA1245 ✈ 28-Sep-2013 ✈ KDEN - KDTW

Flight Track Log - Related Links

Times and Time Zones

All times are in EDT time to prevent confusion due to time zone crossing. See the SWA1245 flight status page for this flight to view local times or setup timezone preferences in your user account.

Time Position Orientation Groundspeed Altitude Reporting Facility
EDT Latitude Longitude Course Direction KTS MPH feet Rate Location/Type
08:14PM 39.9136 -104.6814 54° Northeast 181 208 6,900  Level Denver Center
08:15PM 39.9500 -104.6167 54° Northeast 240 276 8,100 1,620 Climbing Denver TRACON
08:16PM 39.9500 -104.5000 90° East 322 371 10,000 960 Climbing Denver TRACON
08:17PM 39.9500 -104.3833 90° East 346 398 10,100 1,020 Climbing Denver TRACON
08:18PM 39.9667 -104.2500 81° East 401 461 12,000 2,400 Climbing Denver TRACON
08:19PM 39.9819 -104.0569 84° East 413 475 15,600 2,520 Climbing Denver Center
08:20PM 39.9989 -103.9039 82° East 425 489 18,100 2,340 Climbing Denver Center
08:21PM 40.0261 -103.7428 78° East 456 525 20,400 2,040 Climbing Denver Center
08:22PM 40.0503 -103.5958 78° East 460 529 22,300 2,160 Climbing Denver Center
08:23PM 40.0836 -103.3886 78° East 486 559 24,900 2,340 Climbing Denver Center
08:24PM 40.1114 -103.2125 78° East 494 568 27,100 2,220 Climbing Denver Center
08:25PM 40.1386 -103.0386 78° East 490 564 29,500 2,220 Climbing Denver Center
08:26PM 40.1650 -102.8708 78° East 476 548 31,700 1,860 Climbing Denver Center
08:27PM 40.1911 -102.7036 78° East 471 542 33,400 1,560 Climbing Denver Center
08:28PM 40.2197 -102.5250 78° East 469 540 34,900 1,260 Climbing Denver Center
08:29PM 40.2581 -102.3700 72° East 469 540 36,100 1,020 Climbing Denver Center
08:30PM 40.3017 -102.1878 73° East 470 541 37,000 420 Climbing Denver Center
08:31PM 40.3394 -102.0258 73° East 484 557 37,000  Level Denver Center
08:32PM 40.3831 -101.8436 73° East 470 541 37,000 420 Level Denver Center
08:33PM 40.4225 -101.6892 71° East 467 537 37,900 600 Climbing Denver Center
08:34PM 40.4581 -101.5347 73° East 465 535 38,300 300 Climbing Denver Center
08:36PM 40.5008 -101.3450 73° East 486 559 38,600 240 Climbing Denver Center
08:37PM 40.5328 -101.2064 73° East 495 570 38,800 180 Climbing Denver Center
08:38PM 40.5839 -100.9789 73° East 509 586 39,000 60 Climbing Denver Center
08:39PM 40.6222 -100.8103 73° East 509 586 39,000  Level Denver Center
08:40PM 40.6650 -100.6150 74° East 506 582 39,000  Level Denver Center
08:41PM 40.7031 -100.4467 73° East 507 583 39,000  Level Denver Center
08:42PM 40.7467 -100.2506 74° East 504 580 39,000  Level Denver Center
08:43PM 40.7842 -100.0800 74° East 507 583 39,000  Level Denver Center
08:44PM 40.8217 -99.9083 74° East 510 587 39,000  Level Denver Center
08:45PM 40.8642 -99.7125 74° East 518 596 39,000  Level Denver Center
08:46PM 40.9036 -99.5289 74° East 520 598 39,000  Level Denver Center
08:47PM 40.9425 -99.3431 74° East 524 603 39,000  Level Denver Center
08:48PM 40.9811 -99.1578 75° East 524 603 39,000  Level Denver Center
08:49PM 41.0211 -98.9642 75° East 525 604 39,000  Level Denver Center
08:50PM 41.0636 -98.7547 75° East 526 605 39,000  Level Denver Center
08:51PM 41.1022 -98.5719 74° East 530 610 39,000  Level Denver Center
08:52PM 41.1550 -98.3108 75° East 527 606 39,000  Level Minneapolis Center
08:53PM 41.1994 -98.0856 75° East 527 606 39,000  Level Minneapolis Center
08:54PM 41.2372 -97.8967 75° East 529 609 39,000  Level Minneapolis Center
08:55PM 41.2742 -97.7056 76° East 532 612 39,000  Level Minneapolis Center
08:56PM 41.3114 -97.5153 75° East 534 615 39,000  Level Minneapolis Center
08:57PM 41.3458 -97.3358 76° East 535 616 39,000  Level Minneapolis Center
08:58PM 41.3828 -97.1428 76° East 537 618 39,000  Level Minneapolis Center
08:59PM 41.4200 -96.9503 75° East 536 617 39,000  Level Minneapolis Center
09:01PM 41.4628 -96.7189 76° East 535 616 39,000  Level Minneapolis Center
09:02PM 41.4981 -96.5264 76° East 534 615 39,000  Level Minneapolis Center
09:03PM 41.5319 -96.3381 76° East 534 615 39,000  Level Minneapolis Center
09:04PM 41.5689 -96.1306 77° East 533 613 39,000  Level Minneapolis Center
09:05PM 41.6039 -95.9389 76° East 531 611 39,000  Level Minneapolis Center
09:06PM 41.6375 -95.7469 77° East 531 611 39,000  Level Minneapolis Center
09:07PM 41.6711 -95.5525 77° East 533 613 39,000  Level Minneapolis Center
09:08PM 41.7042 -95.3594 77° East 532 612 39,000  Level Minneapolis Center
09:09PM 41.7378 -95.1672 77° East 531 611 39,000  Level Minneapolis Center
09:10PM 41.7700 -94.9736 77° East 531 611 39,000  Level Minneapolis Center
09:11PM 41.8006 -94.7800 78° East 532 612 39,000  Level Minneapolis Center
09:12PM 41.8331 -94.5878 77° East 529 609 39,000  Level Minneapolis Center
09:13PM 41.8650 -94.3942 77° East 531 611 39,000  Level Minneapolis Center
09:14PM 41.8983 -94.1983 77° East 535 616 39,000  Level Minneapolis Center
09:15PM 41.9272 -94.0028 79° East 535 616 39,000  Level Minneapolis Center
09:16PM 41.9592 -93.8053 78° East 535 616 39,000  Level Minneapolis Center
09:17PM 41.9903 -93.6086 78° East 539 620 39,000  Level Minneapolis Center
09:18PM 42.0275 -93.3767 78° East 537 618 39,000  Level Minneapolis Center
09:19PM 42.0567 -93.1839 78° East 534 615 39,000  Level Minneapolis Center
09:20PM 42.0842 -92.9875 79° East 539 620 39,000  Level Minneapolis Center
09:21PM 42.1136 -92.7947 78° East 534 615 39,000  Level Minneapolis Center
09:22PM 42.1542 -92.6039 74° East 537 618 39,000  Level Minneapolis Center
09:23PM 42.2017 -92.4147 71° East 539 620 39,000  Level Minneapolis Center
09:24PM 42.2478 -92.2267 72° East 537 618 39,000  Level Minneapolis Center
09:25PM 42.3011 -91.9972 72° East 540 621 39,000  Level Minneapolis Center
09:26PM 42.3464 -91.8086 72° East 538 619 39,000  Level Minneapolis Center
09:27PM 42.3903 -91.6200 72° East 537 618 39,000  Level Minneapolis Center
09:28PM 42.4339 -91.4314 73° East 537 618 39,000  Level Minneapolis Center
09:29PM 42.4778 -91.2419 73° East 538 619 39,000  Level Minneapolis Center
09:30PM 42.5203 -91.0539 73° East 535 616 39,000  Level Minneapolis Center
09:31PM 42.5722 -90.8267 73° East 534 615 39,000  Level Minneapolis Center
09:32PM 42.6147 -90.6361 73° East 535 616 39,000  Level Minneapolis Center
09:33PM 42.6664 -90.4081 73° East 533 613 39,000  Level Chicago Center
09:34PM 42.7083 -90.2175 73° East 532 612 39,000  Level Chicago Center
09:35PM 42.7519 -90.0269 73° East 533 613 39,000  Level Chicago Center
09:36PM 42.7964 -89.8197 74° East 529 609 39,000  Level Chicago Center
09:37PM 42.8372 -89.6281 74° East 530 610 39,000  Level Chicago Center
09:38PM 42.8775 -89.4367 74° East 528 608 39,000  Level Chicago Center
09:39PM 42.9178 -89.2450 74° East 526 605 39,000  Level Chicago Center
09:40PM 42.9661 -89.0169 74° East 525 604 39,000  Level Chicago Center
09:41PM 42.9814 -88.8231 84° East 515 593 39,000  Level Chicago Center
09:43PM 42.9992 -88.6331 83° East 511 588 39,000  Level Chicago Center
09:44PM 43.0147 -88.4436 84° East 508 585 39,000  Level Chicago Center
09:45PM 43.0322 -88.2575 83° East 503 579 39,000  Level Chicago Center
09:46PM 43.0472 -88.0706 84° East 501 577 39,000  Level Chicago Center
09:47PM 43.0622 -87.8828 84° East 502 578 39,000  Level Chicago Center
09:48PM 43.0783 -87.6975 83° East 497 572 39,000 -300 Level Chicago Center
09:49PM 43.0928 -87.5111 84° East 497 572 38,500 -780 Descending Chicago Center
09:50PM 43.1083 -87.3075 84° East 502 578 37,500 -960 Descending Chicago Center
09:51PM 43.1239 -87.1144 84° East 510 587 36,600 -900 Descending Chicago Center
09:52PM 43.1364 -86.9236 85° East 505 581 35,700 -960 Descending Chicago Center
09:53PM 43.1236 -86.7378 95° East 492 566 34,700 -960 Descending Chicago Center
09:54PM 43.1083 -86.5533 96° East 490 564 33,800 -960 Descending Chicago Center
09:55PM 43.0931 -86.3697 96° East 488 562 32,800 -1,140 Descending Chicago Center
09:56PM 43.0747 -86.1494 96° East 486 559 31,600 -1,020 Descending Chicago Center
09:57PM 43.0603 -85.9967 97° East 486 559 30,800 -1,260 Descending Chicago Center
09:58PM 43.0433 -85.8067 97° East 479 551 29,100 -1,860 Descending Chicago Center
09:59PM 43.0289 -85.6389 97° East 454 522 27,100 -1,500 Descending Chicago Center
10:00PM 43.0136 -85.4728 97° East 444 511 26,100 -1,140 Descending Chicago Center
10:01PM 42.9953 -85.2769 97° East 435 501 24,900 -1,380 Descending Chicago Center
10:02PM 42.9806 -85.1192 97° East 426 490 23,300 -960 Descending Chicago Center
10:03PM 42.9658 -84.9647 97° East 415 478 23,000 -180 Descending Chicago Center
10:04PM 42.9500 -84.8075 98° East 417 480 23,000  Level Chicago Center
10:05PM 42.9339 -84.6417 98° East 434 499 23,000  Level Chicago Center
10:06PM 42.9178 -84.4753 97° East 441 507 23,000 -1,080 Level Chicago Center
10:07PM 42.9019 -84.3439 99° East 437 503 21,100 -2,220 Descending Cleveland Center
10:08PM 42.8869 -84.1975 98° East 426 490 19,000 -2,400 Descending Cleveland Center
10:08PM 42.8714 -84.0606 99° East 408 470 16,900 -2,280 Descending Cleveland Center
10:09PM 42.8700 -84.0456 97° East 410 472 16,700 -2,340 Descending Cleveland Center
10:09PM 42.8664 -84.0169 100° East 403 464 16,200 -2,340 Descending Cleveland Center
10:10PM 42.8539 -83.8969 98° East 399 459 14,400 -2,280 Descending Cleveland Center
10:10PM 42.8469 -83.8717 111° Southeast 385 443 13,900 -2,700 Descending Cleveland Center
10:11PM 42.7783 -83.7872 138° Southeast 355 409 11,800 -1,980 Descending Cleveland Center
10:11PM 42.7889 -83.7942 334° Northwest 375 432 12,000 -1,620 Climbing Cleveland Center
10:12PM 42.7033 -83.7050 143° Southeast 342 394 10,200 -1,920 Descending Cleveland Center
10:12PM 42.6969 -83.6986 144° Southeast 348 400 10,100 -1,080 Descending Cleveland Center
10:13PM 42.6311 -83.6300 143° Southeast 306 352 9,100 -1,080 Descending Cleveland Center
10:13PM 42.6278 -83.6258 137° Southeast 289 333 9,000 -1,380 Descending Cleveland Center
10:14PM 42.5683 -83.5636 142° Southeast 290 334 7,700 -1,380 Descending Cleveland Center
10:14PM 42.5636 -83.5625 170° South 285 328 7,600 -1,680 Descending Cleveland Center
10:15PM 42.5053 -83.4983 141° Southeast 285 328 6,000 -1,740 Descending Cleveland Center
10:15PM 42.5000 -83.4939 148° Southeast 285 328 5,900 -1,140 Descending Cleveland Center
10:16PM 42.4428 -83.4358 143° Southeast 281 323 4,900 -1,140 Descending Cleveland Center
10:16PM 42.4400 -83.4314 130° Southeast 265 305 4,800 -1,320 Descending Cleveland Center
10:17PM 42.3861 -83.3753 142° Southeast 269 310 3,600 -1,320 Descending Cleveland Center
10:17PM 42.3817 -83.3722 153° Southeast 261 300 3,500 -720 Descending Cleveland Center
10:18PM 42.3319 -83.3200 142° Southeast 247 284 2,900 -720 Descending Cleveland Center
10:18PM 42.3272 -83.3192 173° South 199 229 2,800 -600 Descending Cleveland Center
10:19PM 42.2883 -83.3117 172° South 185 213 2,300 -600 Descending Cleveland Center
10:19PM 42.2856 -83.3133 204° Southwest 130 150 2,200 -1,140 Descending Cleveland Center
10:20PM 42.2569 -83.3292 202° Southwest 138 159 1,200 -1,020 Descending Cleveland Center
10:20PM 42.2550 -83.3317 224° Southwest 126 145 1,200 -240 Level Cleveland Center
10:21PM 42.2267 -83.3511 207° Southwest 130 150 1,000 -240 Descending Cleveland Center
10:23PM 42.2124 -83.3534 154° Southeast  Level Estimated
10:30PM 42.2124 -83.3534 154° Southeast  Level Estimated